createdAt,value
2022-10-31T00:00:18.968Z,3.97
2022-10-31T00:05:22.303Z,3.73
2022-10-31T00:10:25.543Z,3.43
2022-10-31T00:15:30.110Z,4.53
2022-10-31T00:20:33.752Z,3.90
2022-10-31T00:25:37.923Z,3.40
2022-10-31T00:30:42.521Z,3.50
2022-10-31T00:35:51.114Z,3.33
2022-10-31T00:40:54.740Z,3.73
2022-10-31T00:45:59.415Z,3.37
2022-10-31T00:51:02.628Z,2.43
2022-10-31T00:56:06.389Z,3.03
2022-10-31T01:01:11.036Z,3.03
2022-10-31T01:06:14.948Z,3.03
2022-10-31T01:11:19.253Z,3.10
2022-10-31T01:16:24.905Z,3.27
2022-10-31T01:21:28.894Z,2.87
2022-10-31T01:26:35.500Z,2.80
2022-10-31T01:31:40.932Z,3.07
2022-10-31T01:36:45.879Z,2.97
2022-10-31T01:41:50.561Z,3.20
2022-10-31T01:46:57.435Z,4.10
2022-10-31T01:52:02.118Z,4.53
2022-10-31T01:57:07.072Z,3.20
2022-10-31T02:02:12.795Z,3.00
2022-10-31T02:07:17.196Z,2.53
2022-10-31T02:12:20.855Z,3.20
2022-10-31T02:17:25.474Z,3.10
2022-10-31T02:22:32.315Z,2.73
2022-10-31T02:28:05.798Z,3.30
2022-10-31T02:33:17.674Z,3.30
2022-10-31T02:38:27.688Z,3.17
2022-10-31T02:43:35.508Z,2.73
2022-10-31T02:48:41.365Z,2.73
2022-10-31T02:53:44.596Z,3.13
2022-10-31T02:58:50.260Z,3.23
2022-10-31T03:04:00.891Z,2.80
2022-10-31T03:09:12.577Z,3.20
2022-10-31T03:14:21.500Z,2.73
2022-10-31T03:19:32.397Z,3.20
2022-10-31T03:24:37.875Z,2.87
2022-10-31T03:29:42.456Z,2.80
2022-10-31T03:34:47.592Z,2.77
2022-10-31T03:39:52.551Z,2.60
2022-10-31T03:45:00.154Z,2.80
2022-10-31T03:50:06.201Z,2.93
2022-10-31T03:55:11.581Z,2.87
2022-10-31T04:00:16.809Z,3.10
2022-10-31T04:05:24.944Z,3.80
2022-10-31T04:10:33.030Z,3.03
2022-10-31T04:15:37.616Z,3.20
2022-10-31T04:20:43.628Z,3.40
2022-10-31T04:25:48.538Z,3.30
2022-10-31T04:30:53.943Z,3.17
2022-10-31T04:35:59.231Z,3.47
2022-10-31T04:41:02.427Z,2.60
2022-10-31T04:46:29.177Z,3.10
2022-10-31T04:51:35.643Z,3.03
2022-10-31T04:56:38.953Z,3.40
2022-10-31T05:01:48.555Z,3.87
2022-10-31T05:06:56.659Z,3.10
2022-10-31T05:11:59.843Z,3.47
2022-10-31T05:17:21.492Z,3.60
2022-10-31T05:23:04.135Z,3.17
2022-10-31T05:28:07.473Z,2.90
2022-10-31T05:33:11.871Z,3.47
2022-10-31T05:38:35.174Z,2.87
2022-10-31T05:43:58.595Z,2.77
2022-10-31T05:49:08.003Z,2.93
2022-10-31T05:54:31.271Z,3.10
2022-10-31T05:59:35.055Z,3.20
2022-10-31T06:04:38.914Z,2.83
2022-10-31T06:09:43.596Z,2.87
2022-10-31T06:14:47.526Z,3.07
2022-10-31T06:25:04.077Z,3.87
2022-10-31T06:30:12.067Z,3.63
2022-10-31T06:35:15.468Z,3.47
2022-10-31T06:40:20.787Z,4.03
2022-10-31T06:45:46.421Z,7.53
2022-10-31T06:50:49.642Z,3.80
2022-10-31T06:55:54.319Z,3.83
2022-10-31T07:01:00.966Z,4.10
2022-10-31T07:06:04.347Z,3.40
2022-10-31T07:11:10.479Z,3.00
2022-10-31T07:16:15.968Z,2.93
2022-10-31T07:21:20.326Z,3.03
2022-10-31T07:26:24.918Z,3.03
2022-10-31T07:31:28.817Z,3.00
2022-10-31T07:36:36.858Z,3.10
2022-10-31T07:41:42.866Z,3.50
2022-10-31T07:46:46.470Z,3.53
2022-10-31T07:52:08.283Z,3.80
2022-10-31T07:57:34.538Z,3.30
2022-10-31T08:02:38.234Z,3.17
2022-10-31T08:08:02.108Z,3.53
2022-10-31T08:13:08.762Z,4.57
2022-10-31T08:18:15.011Z,4.57
2022-10-31T08:23:19.444Z,4.13
2022-10-31T08:28:24.848Z,4.97
2022-10-31T08:33:30.269Z,4.17
2022-10-31T08:39:01.441Z,4.23
2022-10-31T08:44:07.287Z,4.80
2022-10-31T08:49:10.530Z,4.80
2022-10-31T08:54:15.349Z,5.10
2022-10-31T08:59:34.667Z,4.37
2022-10-31T09:04:58.099Z,5.13
2022-10-31T09:10:01.404Z,4.73
2022-10-31T09:15:11.254Z,5.03
2022-10-31T09:20:24.845Z,4.93
2022-10-31T09:25:29.261Z,4.90
2022-10-31T09:30:54.910Z,5.57
2022-10-31T09:36:18.874Z,5.10
2022-10-31T09:41:26.498Z,5.10
2022-10-31T09:46:36.972Z,5.10
2022-10-31T09:51:42.849Z,4.73
2022-10-31T09:56:52.059Z,5.20
2022-10-31T10:01:58.554Z,5.70
2022-10-31T10:07:04.689Z,4.70
2022-10-31T10:12:40.809Z,5.33
2022-10-31T10:17:49.207Z,5.70
2022-10-31T10:22:54.951Z,5.95
2022-10-31T10:28:03.534Z,5.90
2022-10-31T10:33:11.669Z,7.13
2022-10-31T10:38:18.478Z,6.07
2022-10-31T10:43:24.134Z,5.25
2022-10-31T10:48:34.189Z,6.05
2022-10-31T10:54:03.152Z,5.85
2022-10-31T10:59:12.035Z,5.13
2022-10-31T11:04:24.164Z,5.47
2022-10-31T11:09:27.537Z,5.13
2022-10-31T11:14:30.823Z,5.25
2022-10-31T11:19:35.387Z,5.13
2022-10-31T11:24:40.211Z,5.57
2022-10-31T11:29:43.433Z,5.28
2022-10-31T11:34:50.320Z,5.50
2022-10-31T11:39:55.344Z,5.88
2022-10-31T11:44:58.918Z,6.07
2022-10-31T11:50:04.367Z,6.53
2022-10-31T11:55:16.770Z,6.25
2022-10-31T12:00:23.763Z,7.03
2022-10-31T12:05:30.180Z,7.07
2022-10-31T12:10:37.381Z,6.50
2022-10-31T12:15:42.666Z,5.87
2022-10-31T12:20:55.160Z,6.90
2022-10-31T12:26:03.566Z,6.68
2022-10-31T12:31:15.816Z,5.72
2022-10-31T12:36:29.896Z,6.18
2022-10-31T12:41:38.660Z,6.43
2022-10-31T12:46:57.991Z,6.22
2022-10-31T12:52:08.776Z,6.97
2022-10-31T12:57:25.442Z,6.13
2022-10-31T13:02:30.547Z,7.18
2022-10-31T13:07:38.243Z,6.88
2022-10-31T13:12:41.849Z,7.35
2022-10-31T13:17:47.619Z,7.57
2022-10-31T13:22:53.887Z,7.65
2022-10-31T13:27:59.285Z,7.68
2022-10-31T13:33:04.373Z,7.93
2022-10-31T13:38:13.539Z,8.20
2022-10-31T13:43:21.469Z,9.13
2022-10-31T13:48:39.911Z,8.20
2022-10-31T13:53:47.025Z,9.00
2022-10-31T13:59:04.078Z,9.47
2022-10-31T14:04:14.827Z,9.77
2022-10-31T14:09:26.729Z,10.57
2022-10-31T14:14:33.308Z,10.07
2022-10-31T14:19:36.493Z,11.43
2022-10-31T14:24:41.044Z,11.03
2022-10-31T14:29:47.975Z,11.20
2022-10-31T14:34:55.232Z,10.97
2022-10-31T14:40:09.830Z,11.90
2022-10-31T14:45:19.926Z,13.90
2022-10-31T14:50:25.577Z,13.60
2022-10-31T14:55:30.250Z,13.50
2022-10-31T15:00:34.355Z,12.13
2022-10-31T15:05:43.194Z,14.40
2022-10-31T15:10:48.069Z,14.00
2022-10-31T15:15:52.522Z,12.40
2022-10-31T15:20:56.882Z,13.37
2022-10-31T15:26:02.083Z,12.07
2022-10-31T15:31:05.482Z,13.33
2022-10-31T15:36:08.918Z,14.03
2022-10-31T15:41:23.347Z,14.60
2022-10-31T15:46:28.247Z,13.97
2022-10-31T15:51:32.822Z,14.30
2022-10-31T15:56:37.311Z,14.60
2022-10-31T16:01:41.027Z,14.60
2022-10-31T16:06:44.324Z,14.63
2022-10-31T16:11:49.044Z,18.13
2022-10-31T16:16:54.295Z,13.10
2022-10-31T16:22:03.576Z,13.30
2022-10-31T16:27:09.704Z,12.10
2022-10-31T16:32:29.278Z,13.93
2022-10-31T16:37:32.409Z,11.83
2022-10-31T16:42:37.139Z,13.47
2022-10-31T16:47:40.303Z,13.80
2022-10-31T16:53:08.451Z,13.23
2022-10-31T16:58:14.019Z,13.57
2022-10-31T17:03:17.217Z,15.23
2022-10-31T17:08:20.336Z,16.73
2022-10-31T17:13:26.596Z,14.87
2022-10-31T17:18:30.945Z,15.10
2022-10-31T17:23:34.601Z,14.90
2022-10-31T17:28:39.196Z,13.53
2022-10-31T17:33:43.239Z,14.57
2022-10-31T17:38:46.363Z,13.33
2022-10-31T17:43:50.896Z,15.27
2022-10-31T17:48:54.100Z,15.07
2022-10-31T17:53:57.302Z,14.67
2022-10-31T17:59:02.074Z,15.90
2022-10-31T18:04:05.437Z,19.10
2022-10-31T18:09:08.808Z,14.93
2022-10-31T18:14:13.433Z,17.10
2022-10-31T18:19:17.143Z,13.70
2022-10-31T18:24:20.367Z,15.57
2022-10-31T18:29:25.088Z,14.93
2022-10-31T18:34:28.332Z,16.23
2022-10-31T18:39:31.560Z,13.57
2022-10-31T18:44:36.137Z,16.77
2022-10-31T18:49:39.344Z,13.37
2022-10-31T18:54:42.730Z,13.03
2022-10-31T18:59:47.303Z,13.73
2022-10-31T19:04:50.415Z,12.80
2022-10-31T19:09:53.815Z,14.43
2022-10-31T19:14:58.390Z,13.83
2022-10-31T19:20:01.597Z,11.93
2022-10-31T19:25:09.238Z,11.50
2022-10-31T19:30:15.912Z,10.20
2022-10-31T19:35:19.194Z,13.40
2022-10-31T19:40:22.621Z,13.43
2022-10-31T19:45:27.292Z,20.23
2022-10-31T19:50:30.884Z,14.60
2022-10-31T19:55:34.086Z,15.70
2022-10-31T20:00:40.472Z,15.83
2022-10-31T20:05:44.038Z,13.83
2022-10-31T20:10:54.551Z,13.93
2022-10-31T20:16:01.102Z,13.83
2022-10-31T20:21:05.075Z,14.37
2022-10-31T20:26:10.317Z,13.50
2022-10-31T20:31:16.060Z,11.83
2022-10-31T20:36:21.044Z,10.67
2022-10-31T20:41:24.262Z,12.37
2022-10-31T20:46:29.278Z,11.53
2022-10-31T20:51:32.487Z,12.03
2022-10-31T20:56:35.864Z,11.50
2022-10-31T21:01:40.538Z,12.47
2022-10-31T21:06:49.096Z,13.43
2022-10-31T21:11:52.825Z,12.30
2022-10-31T21:16:57.406Z,12.50
2022-10-31T21:22:00.619Z,9.23
2022-10-31T21:27:08.513Z,10.10
2022-10-31T21:32:16.202Z,10.80
2022-10-31T21:37:20.107Z,8.73
2022-10-31T21:42:23.917Z,9.03
2022-10-31T21:47:28.492Z,8.17
2022-10-31T21:52:31.680Z,8.63
2022-10-31T21:57:35.032Z,45.13
2022-10-31T22:02:39.710Z,28.47
2022-10-31T22:07:42.968Z,17.37
2022-10-31T22:12:45.991Z,18.30
2022-10-31T22:17:50.486Z,14.07
2022-10-31T22:22:53.798Z,17.23
2022-10-31T22:27:57.024Z,15.80
2022-10-31T22:33:01.953Z,12.90
2022-10-31T22:38:05.536Z,12.40
2022-10-31T22:43:08.993Z,12.57
2022-10-31T22:48:13.802Z,6.80
2022-10-31T22:53:16.998Z,9.13
2022-10-31T22:58:20.216Z,9.53
2022-10-31T23:03:25.061Z,3.73
2022-10-31T23:08:28.778Z,2.60
2022-10-31T23:13:49.379Z,3.37
2022-10-31T23:18:54.004Z,6.63
2022-10-31T23:23:57.880Z,7.47
2022-10-31T23:29:01.167Z,8.43
2022-10-31T23:34:05.772Z,7.90
2022-10-31T23:39:08.979Z,8.10
2022-10-31T23:44:12.207Z,7.60
2022-10-31T23:49:16.783Z,7.27
2022-10-31T23:54:19.989Z,6.63
2022-10-31T23:59:23.330Z,6.57
